createdAt,value
2023-09-04T00:00:06.914Z,69.80
2023-09-04T00:02:33.551Z,69.89
2023-09-04T00:05:00.184Z,69.83
2023-09-04T00:07:26.663Z,69.87
2023-09-04T00:09:53.740Z,69.79
2023-09-04T00:12:20.344Z,68.94
2023-09-04T00:14:46.839Z,69.91
2023-09-04T00:17:13.380Z,69.52
2023-09-04T00:19:39.931Z,69.64
2023-09-04T00:22:06.444Z,69.43
2023-09-04T00:24:33.010Z,70.26
2023-09-04T00:26:59.520Z,69.74
2023-09-04T00:29:26.045Z,69.59
2023-09-04T00:31:52.669Z,69.62
2023-09-04T00:34:19.529Z,69.75
2023-09-04T00:36:46.129Z,69.53
2023-09-04T00:39:12.741Z,69.52
2023-09-04T00:41:39.232Z,69.12
2023-09-04T00:44:06.121Z,69.21
2023-09-04T00:46:33.170Z,70.01
2023-09-04T00:48:59.981Z,70.37
2023-09-04T00:51:26.747Z,70.82
2023-09-04T00:53:53.654Z,70.70
2023-09-04T00:56:21.084Z,70.99
2023-09-04T00:58:48.520Z,71.37
2023-09-04T01:01:15.049Z,71.87
2023-09-04T01:03:42.304Z,72.02
2023-09-04T01:06:08.959Z,71.58
2023-09-04T01:08:37.495Z,71.98
2023-09-04T01:11:13.149Z,72.10
2023-09-04T01:13:50.498Z,71.60
2023-09-04T01:16:18.485Z,71.60
2023-09-04T01:18:45.586Z,70.83
2023-09-04T01:21:12.380Z,71.65
2023-09-04T01:23:38.975Z,71.73
2023-09-04T01:26:09.558Z,70.91
2023-09-04T01:28:43.791Z,70.20
2023-09-04T01:31:35.839Z,70.13
2023-09-04T01:34:10.194Z,71.12
2023-09-04T01:36:37.452Z,71.91
2023-09-04T01:39:05.017Z,71.45
2023-09-04T01:41:31.770Z,72.34
2023-09-04T01:43:58.376Z,72.44
2023-09-04T01:46:25.188Z,71.49
2023-09-04T01:48:51.765Z,71.63
2023-09-04T01:51:18.352Z,71.36
2023-09-04T01:53:44.882Z,71.88
2023-09-04T01:56:11.505Z,72.41
2023-09-04T01:58:38.060Z,71.92
2023-09-04T02:01:04.526Z,71.63
2023-09-04T02:03:31.144Z,71.52
2023-09-04T02:05:57.865Z,72.06
2023-09-04T02:08:24.805Z,72.23
2023-09-04T02:10:52.055Z,71.85
2023-09-04T02:13:18.736Z,71.64
2023-09-04T02:15:45.288Z,71.54
2023-09-04T02:18:11.991Z,71.02
2023-09-04T02:20:38.532Z,71.73
2023-09-04T02:23:05.375Z,71.53
2023-09-04T02:25:31.924Z,71.16
2023-09-04T02:27:58.478Z,71.88
2023-09-04T02:30:25.083Z,71.20
2023-09-04T02:32:51.689Z,71.07
2023-09-04T02:35:18.195Z,71.02
2023-09-04T02:37:45.784Z,70.65
2023-09-04T02:40:12.903Z,70.94
2023-09-04T02:42:39.522Z,71.59
2023-09-04T02:45:07.131Z,71.23
2023-09-04T02:47:33.679Z,70.83
2023-09-04T02:50:00.186Z,70.68
2023-09-04T02:52:26.700Z,70.55
2023-09-04T02:54:53.390Z,69.96
2023-09-04T02:57:19.907Z,70.32
2023-09-04T02:59:46.561Z,70.66
2023-09-04T03:02:13.172Z,71.31
2023-09-04T03:04:39.747Z,71.12
2023-09-04T03:07:06.266Z,71.58
2023-09-04T03:09:33.196Z,71.29
2023-09-04T03:12:00.376Z,71.11
2023-09-04T03:14:27.078Z,70.95
2023-09-04T03:16:53.903Z,71.25
2023-09-04T03:19:20.401Z,70.89
2023-09-04T03:21:46.941Z,71.07
2023-09-04T03:24:13.505Z,71.96
2023-09-04T03:26:40.112Z,71.39
2023-09-04T03:29:06.561Z,70.96
2023-09-04T03:31:33.114Z,71.20
2023-09-04T03:34:01.656Z,71.16
2023-09-04T03:36:28.242Z,72.02
2023-09-04T03:38:54.789Z,71.88
2023-09-04T03:41:21.309Z,72.00
2023-09-04T03:43:47.827Z,71.40
2023-09-04T03:46:14.604Z,71.47
2023-09-04T03:48:41.237Z,71.49
2023-09-04T03:51:07.986Z,70.92
2023-09-04T03:53:34.509Z,71.11
2023-09-04T03:56:05.887Z,70.26
2023-09-04T03:58:35.314Z,69.90
2023-09-04T04:01:01.982Z,70.41
2023-09-04T04:03:28.666Z,70.47
2023-09-04T04:05:55.364Z,70.49
2023-09-04T04:08:22.405Z,70.87
2023-09-04T04:10:49.193Z,70.75
2023-09-04T04:13:15.720Z,69.08
2023-09-04T04:15:42.891Z,69.49
2023-09-04T04:18:10.669Z,68.67
2023-09-04T04:20:37.602Z,67.99
2023-09-04T04:23:04.334Z,68.29
2023-09-04T04:25:30.818Z,69.05
2023-09-04T04:27:57.469Z,68.68
2023-09-04T04:30:24.098Z,68.46
2023-09-04T04:32:52.141Z,68.22
2023-09-04T04:35:18.893Z,68.21
2023-09-04T04:37:45.430Z,68.34
2023-09-04T04:42:38.817Z,67.96
2023-09-04T04:45:05.878Z,68.69
2023-09-04T04:47:32.484Z,67.83
2023-09-04T04:49:59.084Z,68.66
2023-09-04T04:52:25.599Z,68.55
2023-09-04T04:54:52.134Z,68.20
2023-09-04T04:57:18.761Z,69.37
2023-09-04T04:59:46.317Z,69.05
2023-09-04T05:02:14.113Z,68.77
2023-09-04T05:04:46.253Z,69.67
2023-09-04T05:07:13.132Z,69.48
2023-09-04T05:09:39.730Z,69.46
2023-09-04T05:12:07.830Z,70.45
2023-09-04T05:14:34.919Z,69.71
2023-09-04T05:17:01.535Z,70.55
2023-09-04T05:19:30.513Z,69.81
2023-09-04T05:21:57.460Z,69.42
2023-09-04T05:24:24.359Z,68.85
2023-09-04T05:26:51.193Z,69.37
2023-09-04T05:29:17.767Z,68.29
2023-09-04T05:31:44.288Z,68.17
2023-09-04T05:34:10.823Z,69.23
2023-09-04T05:36:37.528Z,69.86
2023-09-04T05:39:04.408Z,70.39
2023-09-04T05:41:31.225Z,70.71
2023-09-04T05:43:57.895Z,71.00
2023-09-04T05:46:24.485Z,72.03
2023-09-04T05:48:51.040Z,71.76
2023-09-04T05:51:17.607Z,71.93
2023-09-04T05:53:47.013Z,71.15
2023-09-04T05:56:20.686Z,70.27
2023-09-04T05:58:50.608Z,70.13
2023-09-04T06:01:18.327Z,68.92
2023-09-04T06:03:46.327Z,68.78
2023-09-04T06:06:13.793Z,67.48
2023-09-04T06:08:40.512Z,66.62
2023-09-04T06:11:07.162Z,65.73
2023-09-04T06:13:34.169Z,65.00
2023-09-04T06:16:01.783Z,65.94
2023-09-04T06:18:31.601Z,68.42
2023-09-04T06:20:58.690Z,67.22
2023-09-04T06:23:25.424Z,66.81
2023-09-04T06:25:51.969Z,68.18
2023-09-04T06:28:18.768Z,67.69
2023-09-04T06:30:46.398Z,65.80
2023-09-04T06:33:13.158Z,64.57
2023-09-04T06:35:39.778Z,63.44
2023-09-04T06:38:07.043Z,64.04
2023-09-04T06:40:33.743Z,64.24
2023-09-04T06:43:00.320Z,62.55
2023-09-04T06:45:27.083Z,62.56
2023-09-04T06:47:54.319Z,62.02
2023-09-04T06:50:20.905Z,60.16
2023-09-04T06:52:47.657Z,58.93
2023-09-04T06:55:14.309Z,57.90
2023-09-04T06:57:40.858Z,57.36
2023-09-04T07:00:12.076Z,57.60
2023-09-04T07:02:38.856Z,57.54
2023-09-04T07:05:08.370Z,57.30
2023-09-04T07:07:38.156Z,55.83
2023-09-04T07:10:06.046Z,55.36
2023-09-04T07:12:35.818Z,54.13
2023-09-04T07:15:02.707Z,54.54
2023-09-04T07:17:29.449Z,52.91
2023-09-04T07:19:56.049Z,52.89
2023-09-04T07:22:22.592Z,52.08
2023-09-04T07:24:49.230Z,50.76
2023-09-04T07:27:15.808Z,49.94
2023-09-04T07:29:42.324Z,49.09
2023-09-04T07:32:08.840Z,48.89
2023-09-04T07:34:36.605Z,48.61
2023-09-04T07:37:03.871Z,47.52
2023-09-04T07:39:30.576Z,46.33
2023-09-04T07:41:59.884Z,46.55
2023-09-04T07:44:26.495Z,45.80
2023-09-04T07:46:54.095Z,45.90
2023-09-04T07:49:20.997Z,46.61
2023-09-04T07:51:47.608Z,45.14
2023-09-04T07:54:14.209Z,45.62
2023-09-04T07:56:42.776Z,43.76
2023-09-04T07:59:10.785Z,44.09
2023-09-04T08:01:37.602Z,43.70
2023-09-04T08:04:04.789Z,42.29
2023-09-04T08:06:31.392Z,40.84
2023-09-04T08:08:58.352Z,37.04
2023-09-04T08:11:25.089Z,36.47
2023-09-04T08:13:51.624Z,34.39
2023-09-04T08:16:18.274Z,34.11
2023-09-04T08:18:44.814Z,32.96
2023-09-04T08:21:11.421Z,34.12
2023-09-04T08:23:37.964Z,33.19
2023-09-04T08:26:05.483Z,33.03
2023-09-04T08:28:32.144Z,33.46
2023-09-04T08:30:58.855Z,33.11
2023-09-04T08:33:25.768Z,33.47
2023-09-04T08:35:52.541Z,33.39
2023-09-04T08:38:19.035Z,33.54
2023-09-04T08:40:46.716Z,33.72
2023-09-04T08:43:13.365Z,32.73
2023-09-04T08:45:43.508Z,31.17
2023-09-04T08:48:12.719Z,31.22
2023-09-04T08:50:39.278Z,33.41
2023-09-04T08:53:05.794Z,33.03
2023-09-04T08:55:35.052Z,31.49
2023-09-04T08:58:03.234Z,31.26
2023-09-04T09:00:30.086Z,31.19
2023-09-04T09:03:02.251Z,30.90
2023-09-04T09:05:30.471Z,31.77
2023-09-04T09:07:57.817Z,32.59
2023-09-04T09:10:25.088Z,31.69
2023-09-04T09:12:51.745Z,30.77
2023-09-04T09:15:18.506Z,30.80
2023-09-04T09:17:55.923Z,30.57
2023-09-04T09:20:45.555Z,31.14
2023-09-04T09:23:15.854Z,29.90
2023-09-04T09:25:42.491Z,29.87
2023-09-04T09:28:09.555Z,29.35
2023-09-04T09:30:39.045Z,29.69
2023-09-04T09:33:13.548Z,29.26
2023-09-04T09:35:44.004Z,28.79
2023-09-04T09:38:10.895Z,27.21
2023-09-04T09:40:38.500Z,27.14
2023-09-04T09:43:05.683Z,26.05
2023-09-04T09:45:37.548Z,26.42
2023-09-04T09:48:09.211Z,26.23
2023-09-04T09:50:41.331Z,26.43
2023-09-04T09:53:07.968Z,26.14
2023-09-04T09:55:35.969Z,25.78
2023-09-04T09:58:02.842Z,25.29
2023-09-04T10:00:30.175Z,26.40
2023-09-04T10:02:57.496Z,25.97
2023-09-04T10:05:25.195Z,27.24
2023-09-04T10:07:59.910Z,25.81
2023-09-04T10:10:26.619Z,25.39
2023-09-04T10:13:03.931Z,25.43
2023-09-04T10:15:33.274Z,25.44
2023-09-04T10:18:06.785Z,25.22
2023-09-04T10:20:35.114Z,24.30
2023-09-04T10:23:08.445Z,23.53
2023-09-04T10:25:54.545Z,23.47
2023-09-04T10:28:43.911Z,23.58
2023-09-04T10:31:11.947Z,22.33
2023-09-04T10:33:39.430Z,23.27
2023-09-04T10:36:07.070Z,23.39
2023-09-04T10:38:36.373Z,23.20
2023-09-04T10:41:05.478Z,21.51
2023-09-04T10:43:45.117Z,20.71
2023-09-04T10:46:14.082Z,21.44
2023-09-04T10:48:45.261Z,20.32
2023-09-04T10:51:30.506Z,21.21
2023-09-04T10:53:59.224Z,20.62
2023-09-04T10:56:26.523Z,19.96
2023-09-04T10:59:06.670Z,20.27
2023-09-04T11:01:36.105Z,20.78
2023-09-04T11:04:07.571Z,19.39
2023-09-04T11:06:41.982Z,20.24
2023-09-04T11:09:15.382Z,20.87
2023-09-04T11:11:41.868Z,21.06
2023-09-04T11:14:10.528Z,20.17
2023-09-04T11:16:41.588Z,21.29
2023-09-04T11:19:19.404Z,21.32
2023-09-04T11:21:47.916Z,20.83
2023-09-04T11:24:15.464Z,19.33
2023-09-04T11:26:42.057Z,20.65
2023-09-04T11:29:08.955Z,18.30
2023-09-04T11:31:36.071Z,19.01
2023-09-04T11:34:05.953Z,19.15
2023-09-04T11:36:38.551Z,18.98
2023-09-04T11:39:07.463Z,19.23
2023-09-04T11:41:34.226Z,18.42
2023-09-04T11:44:02.598Z,18.42
2023-09-04T11:46:29.694Z,18.24
2023-09-04T11:48:57.296Z,18.30
2023-09-04T11:51:24.229Z,19.17
2023-09-04T11:53:51.256Z,19.76
2023-09-04T11:56:18.270Z,19.48
2023-09-04T11:58:44.869Z,18.24
2023-09-04T12:01:11.769Z,18.10
2023-09-04T12:03:38.374Z,18.56
2023-09-04T12:06:05.097Z,18.95
2023-09-04T12:08:31.737Z,18.89
2023-09-04T12:10:58.503Z,19.77
2023-09-04T12:13:25.441Z,18.91
2023-09-04T12:15:52.301Z,18.96
2023-09-04T12:18:19.190Z,19.39
2023-09-04T12:20:46.511Z,18.89
2023-09-04T12:23:15.077Z,18.92
2023-09-04T12:25:44.350Z,18.79
2023-09-04T12:28:16.172Z,18.03
2023-09-04T12:30:48.844Z,18.51
2023-09-04T12:33:19.211Z,19.05
2023-09-04T12:35:56.338Z,19.72
2023-09-04T12:38:23.009Z,19.48
2023-09-04T12:40:49.585Z,19.63
2023-09-04T12:43:16.208Z,19.72
2023-09-04T12:45:43.763Z,20.21
2023-09-04T12:48:17.951Z,20.41
2023-09-04T12:50:45.374Z,19.61
2023-09-04T12:53:11.930Z,19.01
2023-09-04T12:55:38.434Z,19.42
2023-09-04T12:58:10.590Z,18.74
2023-09-04T13:00:38.524Z,19.49
2023-09-04T13:03:07.410Z,19.20
2023-09-04T13:05:34.512Z,19.38
2023-09-04T13:08:01.097Z,20.02
2023-09-04T13:10:27.808Z,19.71
2023-09-04T13:12:54.470Z,21.07
2023-09-04T13:15:21.117Z,20.18
2023-09-04T13:17:47.784Z,20.41
2023-09-04T13:20:15.635Z,19.63
2023-09-04T13:22:43.951Z,18.41
2023-09-04T13:25:11.014Z,18.47
2023-09-04T13:27:39.562Z,17.99
2023-09-04T13:30:07.241Z,17.80
2023-09-04T13:32:33.837Z,18.41
2023-09-04T13:35:00.678Z,19.17
2023-09-04T13:37:28.093Z,19.44
2023-09-04T13:39:54.666Z,18.62
2023-09-04T13:42:21.606Z,18.29
2023-09-04T13:44:49.276Z,18.45
2023-09-04T13:47:16.455Z,19.56
2023-09-04T13:49:44.339Z,19.58
2023-09-04T13:52:14.212Z,19.57
2023-09-04T13:54:41.361Z,19.84
2023-09-04T13:57:08.518Z,19.43
2023-09-04T13:59:35.246Z,19.35
2023-09-04T14:02:01.834Z,20.62
2023-09-04T14:04:28.426Z,20.67
2023-09-04T14:06:54.947Z,20.58
2023-09-04T14:09:21.499Z,20.30
2023-09-04T14:11:49.018Z,19.82
2023-09-04T14:14:19.800Z,20.51
2023-09-04T14:16:46.381Z,20.59
2023-09-04T14:19:14.622Z,20.92
2023-09-04T14:21:41.382Z,20.76
2023-09-04T14:24:08.030Z,20.67
2023-09-04T14:26:34.507Z,21.09
2023-09-04T14:29:01.838Z,21.15
2023-09-04T14:31:29.505Z,21.87
2023-09-04T14:33:56.015Z,22.25
2023-09-04T14:36:22.585Z,22.60
2023-09-04T14:38:49.849Z,22.31
2023-09-04T14:41:33.262Z,22.54
2023-09-04T14:44:00.643Z,23.51
2023-09-04T14:46:27.680Z,23.23
2023-09-04T14:48:55.852Z,23.82
2023-09-04T14:51:24.031Z,23.19
2023-09-04T14:53:52.630Z,23.94
2023-09-04T14:56:20.903Z,23.95
2023-09-04T14:58:47.467Z,23.77
2023-09-04T15:01:23.608Z,23.93
2023-09-04T15:03:51.723Z,24.67
2023-09-04T15:06:18.803Z,24.65
2023-09-04T15:08:45.887Z,25.23
2023-09-04T15:11:16.312Z,25.14
2023-09-04T15:13:45.048Z,27.33
2023-09-04T15:16:11.720Z,27.30
2023-09-04T15:18:39.524Z,26.81
2023-09-04T15:21:07.420Z,26.94
2023-09-04T15:23:35.048Z,27.21
2023-09-04T15:26:01.876Z,27.34
2023-09-04T15:28:28.809Z,26.97
2023-09-04T15:30:59.419Z,27.19
2023-09-04T15:33:27.874Z,28.33
2023-09-04T15:35:55.984Z,27.71
2023-09-04T15:38:22.584Z,27.70
2023-09-04T15:40:49.448Z,28.00
2023-09-04T15:43:16.151Z,28.07
2023-09-04T15:45:42.826Z,28.04
2023-09-04T15:48:09.568Z,28.44
2023-09-04T15:50:36.355Z,27.89
2023-09-04T15:53:04.076Z,28.13
2023-09-04T15:55:31.001Z,29.74
2023-09-04T15:57:57.592Z,30.64
2023-09-04T16:00:25.413Z,28.82
2023-09-04T16:02:52.055Z,29.34
2023-09-04T16:05:18.630Z,29.12
2023-09-04T16:07:45.242Z,28.61
2023-09-04T16:10:11.805Z,29.33
2023-09-04T16:12:38.416Z,29.41
2023-09-04T16:15:06.160Z,29.84
2023-09-04T16:17:32.878Z,29.43
2023-09-04T16:19:59.420Z,29.64
2023-09-04T16:22:25.893Z,29.64
2023-09-04T16:24:52.440Z,29.60
2023-09-04T16:27:19.008Z,30.60
2023-09-04T16:29:45.533Z,30.77
2023-09-04T16:32:12.241Z,30.25
2023-09-04T16:34:38.806Z,30.18
2023-09-04T16:37:05.831Z,31.05
2023-09-04T16:39:32.480Z,30.76
2023-09-04T16:41:59.220Z,30.76
2023-09-04T16:44:25.849Z,30.43
2023-09-04T16:46:52.361Z,30.77
2023-09-04T16:49:18.842Z,30.61
2023-09-04T16:51:55.600Z,31.31
2023-09-04T16:54:23.293Z,31.75
2023-09-04T16:56:49.801Z,31.43
2023-09-04T16:59:16.268Z,31.81
2023-09-04T17:01:43.028Z,31.92
2023-09-04T17:04:09.552Z,32.00
2023-09-04T17:06:36.225Z,32.73
2023-09-04T17:09:03.141Z,32.15
2023-09-04T17:11:29.887Z,32.67
2023-09-04T17:13:56.449Z,32.97
2023-09-04T17:16:23.165Z,33.82
2023-09-04T17:18:49.774Z,34.94
2023-09-04T17:21:16.391Z,33.48
2023-09-04T17:23:42.965Z,34.04
2023-09-04T17:26:09.514Z,34.03
2023-09-04T17:28:36.176Z,34.84
2023-09-04T17:31:06.900Z,35.33
2023-09-04T17:33:34.113Z,34.66
2023-09-04T17:36:02.602Z,35.76
2023-09-04T17:38:38.543Z,35.83
2023-09-04T17:41:12.488Z,37.00
2023-09-04T17:43:39.685Z,36.73
2023-09-04T17:46:08.668Z,37.31
2023-09-04T17:48:35.809Z,37.31
2023-09-04T17:51:02.354Z,37.66
2023-09-04T17:53:28.914Z,38.30
2023-09-04T17:55:55.615Z,38.59
2023-09-04T17:58:22.252Z,37.18
2023-09-04T18:00:48.838Z,37.14
2023-09-04T18:03:15.541Z,38.28
2023-09-04T18:05:43.372Z,38.90
2023-09-04T18:08:09.932Z,40.33
2023-09-04T18:10:37.752Z,41.22
2023-09-04T18:13:04.951Z,41.91
2023-09-04T18:15:31.537Z,41.61
2023-09-04T18:17:58.191Z,42.59
2023-09-04T18:20:24.807Z,41.59
2023-09-04T18:22:51.606Z,41.60
2023-09-04T18:25:19.128Z,42.17
2023-09-04T18:27:45.654Z,42.63
2023-09-04T18:30:15.029Z,43.16
2023-09-04T18:32:42.060Z,41.30
2023-09-04T18:35:09.241Z,42.40
2023-09-04T18:37:35.806Z,42.00
2023-09-04T18:40:02.335Z,41.34
2023-09-04T18:42:29.007Z,42.75
2023-09-04T18:44:55.764Z,41.95
2023-09-04T18:47:22.461Z,42.21
2023-09-04T18:49:51.772Z,42.93
2023-09-04T18:52:19.902Z,41.34
2023-09-04T18:54:47.972Z,41.54
2023-09-04T18:57:15.491Z,41.89
2023-09-04T18:59:42.104Z,42.61
2023-09-04T19:02:08.951Z,42.62
2023-09-04T19:04:36.672Z,42.58
2023-09-04T19:07:06.507Z,41.98
2023-09-04T19:09:33.938Z,41.96
2023-09-04T19:12:01.803Z,42.14
2023-09-04T19:14:29.550Z,42.78
2023-09-04T19:16:56.336Z,43.68
2023-09-04T19:19:23.926Z,43.02
2023-09-04T19:21:50.700Z,43.65
2023-09-04T19:24:17.273Z,43.09
2023-09-04T19:26:44.356Z,42.66
2023-09-04T19:29:10.822Z,43.74
2023-09-04T19:31:37.495Z,43.03
2023-09-04T19:34:04.298Z,43.51
2023-09-04T19:36:30.851Z,43.82
2023-09-04T19:38:57.431Z,44.12
2023-09-04T19:41:24.289Z,44.32
2023-09-04T19:43:50.928Z,44.39
2023-09-04T19:46:17.595Z,44.00
2023-09-04T19:48:44.109Z,43.27
2023-09-04T19:51:10.820Z,42.62
2023-09-04T19:53:37.534Z,42.71
2023-09-04T19:56:05.191Z,42.34
2023-09-04T19:58:32.064Z,42.14
2023-09-04T20:00:59.763Z,42.07
2023-09-04T20:03:26.792Z,42.64
2023-09-04T20:05:53.958Z,43.11
2023-09-04T20:08:20.529Z,42.91
2023-09-04T20:10:47.134Z,42.31
2023-09-04T20:13:13.599Z,42.27
2023-09-04T20:15:40.242Z,42.69
2023-09-04T20:18:06.833Z,43.75
2023-09-04T20:20:33.490Z,43.89
2023-09-04T20:23:00.035Z,42.11
2023-09-04T20:25:26.526Z,42.86
2023-09-04T20:27:53.146Z,42.25
2023-09-04T20:30:24.771Z,42.76
2023-09-04T20:32:53.738Z,43.68
2023-09-04T20:35:20.402Z,41.53
2023-09-04T20:37:46.909Z,41.29
2023-09-04T20:40:13.395Z,41.53
2023-09-04T20:42:40.398Z,42.10
2023-09-04T20:45:07.883Z,42.74
2023-09-04T20:47:36.217Z,41.71
2023-09-04T20:50:06.401Z,41.89
2023-09-04T20:52:33.151Z,42.56
2023-09-04T20:54:59.736Z,41.95
2023-09-04T20:57:26.275Z,42.38
2023-09-04T20:59:52.821Z,42.38
2023-09-04T21:02:19.499Z,42.79
2023-09-04T21:04:46.347Z,42.75
2023-09-04T21:07:12.790Z,41.78
2023-09-04T21:09:39.272Z,41.43
2023-09-04T21:12:24.802Z,40.73
2023-09-04T21:15:10.200Z,40.88
2023-09-04T21:17:55.292Z,41.03
2023-09-04T21:20:40.553Z,41.49
2023-09-04T21:23:25.741Z,42.02
2023-09-04T21:26:11.276Z,40.86
2023-09-04T21:28:56.354Z,41.19
2023-09-04T21:31:41.175Z,40.72
2023-09-04T21:34:26.060Z,41.16
2023-09-04T21:37:10.899Z,41.20
2023-09-04T21:39:55.972Z,41.06
2023-09-04T21:42:40.694Z,41.43
2023-09-04T21:45:26.228Z,40.66
2023-09-04T21:48:11.356Z,42.99
2023-09-04T21:50:56.286Z,43.54
2023-09-04T21:53:41.266Z,43.10
2023-09-04T21:56:26.679Z,41.60
2023-09-04T21:59:11.462Z,41.72
2023-09-04T22:01:56.298Z,41.01
2023-09-04T22:04:41.431Z,41.06
2023-09-04T22:07:26.344Z,40.97
2023-09-04T22:10:11.386Z,40.34
2023-09-04T22:12:56.198Z,40.59
2023-09-04T22:15:41.139Z,41.15
2023-09-04T22:18:37.819Z,40.76
2023-09-04T22:21:23.266Z,40.84
2023-09-04T22:24:09.923Z,40.71
2023-09-04T22:26:55.330Z,40.94
2023-09-04T22:29:42.794Z,41.15
2023-09-04T22:32:28.841Z,41.27
2023-09-04T22:35:14.904Z,40.78
2023-09-04T22:38:00.345Z,41.76
2023-09-04T22:40:45.223Z,42.19
2023-09-04T22:43:30.251Z,42.21
2023-09-04T22:46:15.046Z,42.25
2023-09-04T22:48:59.932Z,41.10
2023-09-04T22:51:44.960Z,41.66
2023-09-04T22:54:29.883Z,41.19
2023-09-04T22:57:14.932Z,42.72
2023-09-04T22:59:59.780Z,43.53
2023-09-04T23:02:45.319Z,41.63
2023-09-04T23:05:30.113Z,40.99
2023-09-04T23:08:15.036Z,41.64
2023-09-04T23:11:00.665Z,41.95
2023-09-04T23:13:45.954Z,41.68
2023-09-04T23:16:31.505Z,42.72
2023-09-04T23:19:16.409Z,42.59
2023-09-04T23:21:43.059Z,42.42
2023-09-04T23:24:13.031Z,42.04
2023-09-04T23:26:41.523Z,41.79
2023-09-04T23:29:12.953Z,41.97
2023-09-04T23:31:49.222Z,42.16
2023-09-04T23:34:19.376Z,41.78
2023-09-04T23:36:48.845Z,41.98
2023-09-04T23:39:21.672Z,42.32
2023-09-04T23:42:06.892Z,42.50
2023-09-04T23:44:51.863Z,43.48
2023-09-04T23:47:18.415Z,43.92
2023-09-04T23:49:44.957Z,43.69
2023-09-04T23:52:11.528Z,43.31
2023-09-04T23:54:39.101Z,43.35
2023-09-04T23:57:09.258Z,43.58
2023-09-04T23:59:36.421Z,43.33
